createdAt,value
2022-11-05T00:02:40.918Z,30.05
2022-11-05T00:05:30.787Z,29.63
2022-11-05T00:08:19.163Z,28.65
2022-11-05T00:10:47.375Z,26.67
2022-11-05T00:13:34.883Z,30.38
2022-11-05T00:16:34.707Z,30.23
2022-11-05T00:19:09.098Z,26.92
2022-11-05T00:21:57.729Z,29.63
2022-11-05T00:24:43.541Z,31.20
2022-11-05T00:27:12.087Z,27.08
2022-11-05T00:29:40.406Z,38.38
2022-11-05T00:32:08.649Z,31.13
2022-11-05T00:34:36.800Z,30.40
2022-11-05T00:37:06.276Z,29.85
2022-11-05T00:39:34.372Z,28.40
2022-11-05T00:42:19.727Z,26.85
2022-11-05T00:45:02.642Z,27.75
2022-11-05T00:47:50.332Z,25.05
2022-11-05T00:50:19.819Z,34.85
2022-11-05T00:52:59.380Z,28.17
2022-11-05T00:55:34.483Z,35.25
2022-11-05T00:58:04.486Z,31.55
2022-11-05T01:00:34.841Z,26.05
2022-11-05T01:03:04.736Z,27.35
2022-11-05T01:05:34.671Z,31.10
2022-11-05T01:08:04.220Z,30.77
2022-11-05T01:10:32.324Z,27.92
2022-11-05T01:13:00.456Z,33.45
2022-11-05T01:15:28.947Z,31.15
2022-11-05T01:17:57.273Z,28.38
2022-11-05T01:20:25.414Z,29.60
2022-11-05T01:22:53.603Z,30.17
2022-11-05T01:25:23.583Z,30.85
2022-11-05T01:27:52.080Z,25.77
2022-11-05T01:30:20.665Z,36.20
2022-11-05T01:32:48.910Z,28.02
2022-11-05T01:35:18.568Z,31.85
2022-11-05T01:37:47.587Z,29.73
2022-11-05T01:40:17.519Z,32.05
2022-11-05T01:42:47.515Z,26.05
2022-11-05T01:45:19.071Z,26.10
2022-11-05T01:48:04.686Z,30.95
2022-11-05T01:50:38.361Z,27.20
2022-11-05T01:53:22.818Z,23.98
2022-11-05T01:55:56.145Z,33.22
2022-11-05T01:58:30.100Z,32.88
2022-11-05T02:00:58.575Z,29.63
2022-11-05T02:03:27.839Z,29.10
2022-11-05T02:05:57.597Z,31.52
2022-11-05T02:08:37.311Z,30.58
2022-11-05T02:11:06.596Z,31.90
2022-11-05T02:13:36.870Z,31.48
2022-11-05T02:16:13.799Z,34.88
2022-11-05T02:18:53.317Z,33.55
2022-11-05T02:21:46.052Z,37.22
2022-11-05T02:24:53.613Z,34.75
2022-11-05T02:27:38.871Z,32.33
2022-11-05T02:30:24.680Z,34.30
2022-11-05T02:33:12.889Z,28.02
2022-11-05T02:36:25.462Z,38.97
2022-11-05T02:39:08.160Z,32.38
2022-11-05T02:41:44.240Z,34.70
2022-11-05T02:44:23.990Z,28.38
2022-11-05T02:47:00.372Z,33.63
2022-11-05T02:49:40.275Z,34.83
2022-11-05T02:52:17.181Z,29.23
2022-11-05T02:54:51.877Z,29.83
2022-11-05T02:57:20.495Z,35.10
2022-11-05T02:59:48.615Z,37.17
2022-11-05T03:02:18.239Z,30.60
2022-11-05T03:04:46.460Z,29.13
2022-11-05T03:07:31.541Z,31.45
2022-11-05T03:10:38.499Z,33.97
2022-11-05T03:13:16.269Z,33.20
2022-11-05T03:15:54.754Z,33.85
2022-11-05T03:18:29.353Z,34.58
2022-11-05T03:21:03.986Z,30.90
2022-11-05T03:23:41.058Z,36.25
2022-11-05T03:26:17.655Z,35.05
2022-11-05T03:28:50.372Z,35.03
2022-11-05T03:31:19.959Z,31.20
2022-11-05T03:33:53.091Z,35.08
2022-11-05T03:36:25.867Z,31.08
2022-11-05T03:38:57.003Z,32.22
2022-11-05T03:41:26.460Z,38.95
2022-11-05T03:43:59.715Z,34.00
2022-11-05T03:46:31.751Z,34.35
2022-11-05T03:49:04.006Z,33.88
2022-11-05T03:51:40.372Z,31.77
2022-11-05T03:54:08.923Z,32.80
2022-11-05T03:56:41.526Z,36.00
2022-11-05T03:59:12.160Z,34.65
2022-11-05T04:01:42.800Z,34.95
2022-11-05T04:04:12.395Z,35.63
2022-11-05T04:06:57.761Z,31.42
2022-11-05T04:09:43.114Z,36.08
2022-11-05T04:12:29.475Z,30.80
2022-11-05T04:14:58.478Z,34.70
2022-11-05T04:17:25.584Z,35.88
2022-11-05T04:20:12.859Z,31.00
2022-11-05T04:22:58.306Z,33.60
2022-11-05T04:25:26.441Z,35.08
2022-11-05T04:27:54.524Z,37.83
2022-11-05T04:30:21.864Z,31.83
2022-11-05T04:33:01.049Z,33.20
2022-11-05T04:35:32.256Z,32.58
2022-11-05T04:38:00.657Z,35.83
2022-11-05T04:40:28.964Z,30.35
2022-11-05T04:42:58.450Z,32.25
2022-11-05T04:45:28.888Z,33.17
2022-11-05T04:47:57.164Z,33.78
2022-11-05T04:50:25.460Z,35.10
2022-11-05T04:52:54.986Z,38.53
2022-11-05T04:55:23.274Z,35.00
2022-11-05T04:57:52.341Z,36.22
2022-11-05T05:00:22.453Z,34.22
2022-11-05T05:02:51.018Z,33.40
2022-11-05T05:05:19.374Z,33.63
2022-11-05T05:07:47.458Z,34.08
2022-11-05T05:10:16.992Z,36.83
2022-11-05T05:12:45.143Z,32.03
2022-11-05T05:15:13.234Z,29.55
2022-11-05T05:17:41.394Z,33.83
2022-11-05T05:20:27.470Z,34.10
2022-11-05T05:22:56.563Z,29.60
2022-11-05T05:25:26.061Z,35.60
2022-11-05T05:27:54.136Z,37.63
2022-11-05T05:30:22.211Z,33.17
2022-11-05T05:32:50.362Z,34.22
2022-11-05T05:35:18.603Z,39.13
2022-11-05T05:37:46.723Z,35.80
2022-11-05T05:40:14.855Z,31.00
2022-11-05T05:42:44.331Z,33.30
2022-11-05T05:45:13.427Z,36.40
2022-11-05T05:47:41.571Z,32.72
2022-11-05T05:50:09.929Z,41.55
2022-11-05T05:52:38.042Z,38.22
2022-11-05T05:55:06.886Z,31.63
2022-11-05T05:57:35.466Z,32.88
2022-11-05T06:00:06.066Z,33.42
2022-11-05T06:02:40.074Z,32.88
2022-11-05T06:05:08.689Z,28.40
2022-11-05T06:07:37.574Z,35.58
2022-11-05T06:10:06.967Z,35.28
2022-11-05T06:12:35.126Z,34.53
2022-11-05T06:15:05.417Z,32.63
2022-11-05T06:17:34.350Z,34.03
2022-11-05T06:20:02.658Z,32.65
2022-11-05T06:22:30.842Z,33.42
2022-11-05T06:24:58.958Z,33.33
2022-11-05T06:27:27.093Z,30.17
2022-11-05T06:29:55.506Z,30.50
2022-11-05T06:32:25.127Z,30.25
2022-11-05T06:34:53.484Z,34.50
2022-11-05T06:37:21.578Z,30.58
2022-11-05T06:39:49.726Z,31.23
2022-11-05T06:42:18.982Z,36.55
2022-11-05T06:44:48.050Z,35.20
2022-11-05T06:47:16.233Z,33.17
2022-11-05T06:49:45.988Z,43.25
2022-11-05T06:52:14.961Z,39.03
2022-11-05T06:54:44.488Z,36.85
2022-11-05T06:57:13.978Z,31.02
2022-11-05T06:59:42.579Z,32.78
2022-11-05T07:02:12.892Z,30.75
2022-11-05T07:04:41.126Z,30.42
2022-11-05T07:07:10.923Z,30.00
2022-11-05T07:09:42.978Z,27.87
2022-11-05T07:12:11.207Z,35.67
2022-11-05T07:14:39.382Z,32.93
2022-11-05T07:17:07.514Z,26.77
2022-11-05T07:19:35.635Z,26.90
2022-11-05T07:22:03.786Z,27.73
2022-11-05T07:24:33.323Z,32.93
2022-11-05T07:27:01.556Z,25.80
2022-11-05T07:29:29.714Z,28.27
2022-11-05T07:31:57.864Z,25.77
2022-11-05T07:34:26.063Z,31.97
2022-11-05T07:36:54.185Z,26.13
2022-11-05T07:39:22.950Z,26.97
2022-11-05T07:41:53.159Z,23.20
2022-11-05T07:44:21.304Z,26.47
2022-11-05T07:46:49.399Z,25.87
2022-11-05T07:49:17.598Z,25.93
2022-11-05T07:51:45.946Z,22.93
2022-11-05T07:54:14.047Z,24.57
2022-11-05T07:56:42.135Z,21.37
2022-11-05T07:59:11.833Z,24.60
2022-11-05T08:01:40.090Z,25.50
2022-11-05T08:04:08.397Z,28.60
2022-11-05T08:06:36.515Z,24.03
2022-11-05T08:09:04.925Z,25.30
2022-11-05T08:11:35.106Z,24.47
2022-11-05T08:14:03.259Z,21.87
2022-11-05T08:16:32.748Z,21.03
2022-11-05T08:19:00.843Z,24.50
2022-11-05T08:21:28.943Z,23.77
2022-11-05T08:23:57.110Z,22.80
2022-11-05T08:26:25.263Z,23.63
2022-11-05T08:28:53.407Z,23.10
2022-11-05T08:31:21.543Z,26.80
2022-11-05T08:33:51.036Z,24.10
2022-11-05T08:36:19.322Z,22.00
2022-11-05T08:38:47.419Z,22.23
2022-11-05T08:41:15.740Z,21.07
2022-11-05T08:43:43.895Z,23.60
2022-11-05T08:46:11.964Z,21.33
2022-11-05T08:48:40.075Z,23.10
2022-11-05T08:51:09.572Z,19.27
2022-11-05T08:53:37.682Z,26.20
2022-11-05T08:56:06.160Z,22.53
2022-11-05T08:58:34.276Z,22.50
2022-11-05T09:01:05.667Z,18.00
2022-11-05T09:03:33.933Z,21.90
2022-11-05T09:06:02.067Z,21.07
2022-11-05T09:08:31.596Z,21.23
2022-11-05T09:10:59.719Z,22.73
2022-11-05T09:13:28.334Z,22.83
2022-11-05T09:15:58.708Z,18.43
2022-11-05T09:18:27.223Z,26.33
2022-11-05T09:20:55.351Z,18.13
2022-11-05T09:23:23.489Z,17.03
2022-11-05T09:25:53.130Z,17.00
2022-11-05T09:28:23.748Z,18.20
2022-11-05T09:30:53.561Z,21.40
2022-11-05T09:33:23.568Z,16.37
2022-11-05T09:35:51.859Z,21.23
2022-11-05T09:38:20.518Z,20.37
2022-11-05T09:40:58.455Z,19.07
2022-11-05T09:43:32.299Z,17.00
2022-11-05T09:46:05.317Z,18.87
2022-11-05T09:48:34.867Z,18.30
2022-11-05T09:51:04.947Z,16.97
2022-11-05T09:53:36.986Z,17.17
2022-11-05T09:56:15.092Z,20.17
2022-11-05T09:58:48.818Z,18.80
2022-11-05T10:01:23.024Z,18.73
2022-11-05T10:03:55.650Z,15.23
2022-11-05T10:06:25.878Z,16.13
2022-11-05T10:09:01.338Z,16.77
2022-11-05T10:11:35.319Z,18.90
2022-11-05T10:14:09.888Z,15.93
2022-11-05T10:16:43.446Z,20.10
2022-11-05T10:19:17.175Z,16.33
2022-11-05T10:22:05.677Z,17.57
2022-11-05T10:24:33.678Z,16.03
2022-11-05T10:27:04.229Z,20.83
2022-11-05T10:29:35.525Z,18.20
2022-11-05T10:32:07.290Z,14.77
2022-11-05T10:34:38.039Z,21.67
2022-11-05T10:37:06.774Z,16.80
2022-11-05T10:39:35.930Z,15.60
2022-11-05T10:42:29.790Z,18.03
2022-11-05T10:45:09.063Z,15.30
2022-11-05T10:47:52.924Z,14.30
2022-11-05T10:50:24.387Z,15.50
2022-11-05T10:52:59.014Z,16.50
2022-11-05T10:55:30.358Z,14.23
2022-11-05T10:58:12.289Z,15.83
2022-11-05T11:00:41.095Z,15.03
2022-11-05T11:03:35.602Z,22.67
2022-11-05T11:06:07.679Z,13.70
2022-11-05T11:08:37.674Z,15.77
2022-11-05T11:11:08.995Z,15.83
2022-11-05T11:13:52.943Z,15.30
2022-11-05T11:16:23.701Z,15.00
2022-11-05T11:18:55.296Z,15.17
2022-11-05T11:21:24.642Z,15.67
2022-11-05T11:23:57.533Z,15.77
2022-11-05T11:26:27.914Z,16.50
2022-11-05T11:29:00.525Z,16.97
2022-11-05T11:31:30.759Z,15.80
2022-11-05T11:34:03.656Z,13.97
2022-11-05T11:36:41.408Z,13.57
2022-11-05T11:39:17.598Z,16.20
2022-11-05T11:41:47.111Z,13.27
2022-11-05T11:44:19.252Z,14.57
2022-11-05T11:46:50.825Z,14.43
2022-11-05T11:49:33.611Z,12.53
2022-11-05T11:52:04.770Z,16.20
2022-11-05T11:54:34.749Z,15.00
2022-11-05T11:57:03.095Z,12.93
2022-11-05T12:00:06.686Z,14.23
2022-11-05T12:03:02.069Z,13.67
2022-11-05T12:05:46.253Z,17.50
2022-11-05T12:08:26.347Z,12.53
2022-11-05T12:11:03.027Z,19.87
2022-11-05T12:13:55.639Z,15.40
2022-11-05T12:16:35.740Z,16.73
2022-11-05T12:19:13.408Z,15.17
2022-11-05T12:21:54.118Z,14.80
2022-11-05T12:24:53.766Z,18.93
2022-11-05T12:27:34.816Z,14.30
2022-11-05T12:30:07.050Z,14.67
2022-11-05T12:32:49.421Z,15.93
2022-11-05T12:35:31.578Z,16.20
2022-11-05T12:38:08.168Z,17.67
2022-11-05T12:40:48.008Z,13.77
2022-11-05T12:43:24.940Z,14.23
2022-11-05T12:46:01.458Z,17.73
2022-11-05T12:48:57.908Z,18.00
2022-11-05T12:51:41.025Z,16.23
2022-11-05T12:54:18.919Z,16.07
2022-11-05T12:56:51.036Z,15.57
2022-11-05T12:59:24.230Z,16.53
2022-11-05T13:01:58.889Z,21.17
2022-11-05T13:04:36.988Z,20.73
2022-11-05T13:07:08.767Z,16.93
2022-11-05T13:09:42.694Z,17.43
2022-11-05T13:12:14.568Z,23.53
2022-11-05T13:14:48.572Z,18.00
2022-11-05T13:17:20.709Z,16.50
2022-11-05T13:19:53.979Z,15.87
2022-11-05T13:22:31.592Z,17.70
2022-11-05T13:25:05.603Z,18.07
2022-11-05T13:27:53.004Z,17.97
2022-11-05T13:30:23.333Z,18.77
2022-11-05T13:32:57.235Z,22.50
2022-11-05T13:35:31.583Z,21.00
2022-11-05T13:38:22.419Z,16.33
2022-11-05T13:41:07.875Z,19.20
2022-11-05T13:43:56.120Z,17.20
2022-11-05T13:46:41.288Z,18.13
2022-11-05T13:49:40.252Z,16.60
2022-11-05T13:52:29.451Z,19.93
2022-11-05T13:55:22.777Z,17.97
2022-11-05T13:58:23.367Z,17.23
2022-11-05T14:01:07.070Z,14.90
2022-11-05T14:03:35.335Z,18.73
2022-11-05T14:06:06.184Z,15.43
2022-11-05T14:08:41.135Z,17.53
2022-11-05T14:11:23.617Z,17.03
2022-11-05T14:13:55.784Z,16.47
2022-11-05T14:16:26.036Z,19.30
2022-11-05T14:19:15.679Z,20.57
2022-11-05T14:21:49.003Z,18.80
2022-11-05T14:24:27.905Z,19.10
2022-11-05T14:27:38.069Z,17.10
2022-11-05T14:30:50.851Z,19.77
2022-11-05T14:33:32.716Z,20.30
2022-11-05T14:36:32.128Z,22.53
2022-11-05T14:39:13.477Z,20.67
2022-11-05T14:42:02.167Z,21.30
2022-11-05T14:44:31.668Z,20.80
2022-11-05T14:47:03.570Z,23.00
2022-11-05T14:49:34.455Z,20.97
2022-11-05T14:52:09.068Z,23.97
2022-11-05T14:54:43.710Z,19.10
2022-11-05T14:57:16.042Z,24.17
2022-11-05T15:00:02.409Z,20.17
2022-11-05T15:02:37.819Z,22.47
2022-11-05T15:05:49.710Z,23.93
2022-11-05T15:08:35.955Z,17.97
2022-11-05T15:11:12.798Z,18.53
2022-11-05T15:13:51.982Z,18.80
2022-11-05T15:16:26.351Z,17.77
2022-11-05T15:18:56.618Z,20.27
2022-11-05T15:21:26.134Z,18.10
2022-11-05T15:23:57.580Z,21.00
2022-11-05T15:26:32.738Z,19.53
2022-11-05T15:29:02.561Z,24.07
2022-11-05T15:31:34.683Z,21.70
2022-11-05T15:34:21.592Z,22.10
2022-11-05T15:36:52.547Z,21.53
2022-11-05T15:39:30.427Z,19.70
2022-11-05T15:41:59.831Z,23.03
2022-11-05T15:44:31.860Z,22.90
2022-11-05T15:47:08.428Z,20.47
2022-11-05T15:49:36.790Z,20.97
2022-11-05T15:52:05.688Z,20.13
2022-11-05T15:54:34.070Z,22.60
2022-11-05T15:57:03.020Z,21.13
2022-11-05T15:59:32.654Z,19.97
2022-11-05T16:02:16.299Z,22.57
2022-11-05T16:04:48.543Z,22.37
2022-11-05T16:07:17.328Z,21.53
2022-11-05T16:09:55.293Z,21.03
2022-11-05T16:12:33.402Z,23.77
2022-11-05T16:15:18.386Z,21.33
2022-11-05T16:17:50.001Z,22.50
2022-11-05T16:20:28.502Z,31.80
2022-11-05T16:22:58.684Z,27.30
2022-11-05T16:25:33.479Z,24.50
2022-11-05T16:28:02.575Z,26.80
2022-11-05T16:30:32.234Z,19.53
2022-11-05T16:33:08.054Z,28.40
2022-11-05T16:35:49.110Z,22.10
2022-11-05T16:38:18.452Z,24.83
2022-11-05T16:40:46.630Z,27.07
2022-11-05T16:43:20.417Z,25.53
2022-11-05T16:45:50.033Z,26.17
2022-11-05T16:48:18.376Z,25.73
2022-11-05T16:50:46.610Z,23.23
2022-11-05T16:53:14.958Z,25.13
2022-11-05T16:55:44.912Z,23.93
2022-11-05T16:58:20.805Z,24.37
2022-11-05T17:00:52.321Z,22.23
2022-11-05T17:03:20.428Z,23.87
2022-11-05T17:05:48.688Z,24.87
2022-11-05T17:08:16.812Z,22.10
2022-11-05T17:10:44.997Z,21.93
2022-11-05T17:13:16.388Z,23.73
2022-11-05T17:15:45.771Z,22.40
2022-11-05T17:18:18.898Z,24.50
2022-11-05T17:20:49.358Z,21.37
2022-11-05T17:23:18.893Z,22.03
2022-11-05T17:25:50.157Z,24.37
2022-11-05T17:28:19.114Z,23.10
2022-11-05T17:30:52.142Z,21.83
2022-11-05T17:33:23.751Z,26.50
2022-11-05T17:35:52.748Z,24.33
2022-11-05T17:38:21.602Z,24.67
2022-11-05T17:40:49.766Z,20.93
2022-11-05T17:43:17.890Z,22.93
2022-11-05T17:45:48.171Z,21.73
2022-11-05T17:48:17.145Z,24.17
2022-11-05T17:50:48.880Z,22.23
2022-11-05T17:53:18.376Z,19.67
2022-11-05T17:55:47.863Z,20.73
2022-11-05T17:58:16.352Z,24.40
2022-11-05T18:00:45.743Z,24.33
2022-11-05T18:03:14.981Z,25.37
2022-11-05T18:05:43.353Z,24.73
2022-11-05T18:08:13.331Z,24.57
2022-11-05T18:10:41.904Z,25.07
2022-11-05T18:13:11.160Z,24.43
2022-11-05T18:15:41.358Z,27.40
2022-11-05T18:18:10.471Z,26.45
2022-11-05T18:20:38.745Z,24.40
2022-11-05T18:23:06.999Z,26.37
2022-11-05T18:25:36.549Z,30.73
2022-11-05T18:28:04.799Z,28.07
2022-11-05T18:30:32.930Z,23.87
2022-11-05T18:33:01.233Z,30.27
2022-11-05T18:35:29.317Z,24.87
2022-11-05T18:37:57.467Z,26.57
2022-11-05T18:40:25.597Z,23.60
2022-11-05T18:42:55.101Z,23.30
2022-11-05T18:45:28.408Z,25.73
2022-11-05T18:47:57.784Z,26.67
2022-11-05T18:50:25.971Z,33.20
2022-11-05T18:52:54.312Z,27.83
2022-11-05T18:55:22.942Z,26.57
2022-11-05T18:57:51.167Z,27.73
2022-11-05T19:00:20.872Z,29.57
2022-11-05T19:02:49.007Z,27.88
2022-11-05T19:05:32.676Z,28.02
2022-11-05T19:08:01.450Z,32.40
2022-11-05T19:10:29.723Z,24.30
2022-11-05T19:12:58.132Z,28.80
2022-11-05T19:15:27.674Z,30.33
2022-11-05T19:17:55.761Z,29.25
2022-11-05T19:20:24.098Z,30.73
2022-11-05T19:22:52.207Z,29.63
2022-11-05T19:25:20.479Z,29.90
2022-11-05T19:27:48.844Z,29.80
2022-11-05T19:30:17.452Z,30.00
2022-11-05T19:32:46.999Z,27.58
2022-11-05T19:35:15.384Z,29.95
2022-11-05T19:37:43.564Z,44.88
2022-11-05T19:40:12.827Z,46.58
2022-11-05T19:42:40.954Z,35.38
2022-11-05T19:45:42.990Z,36.45
2022-11-05T19:47:59.820Z,46.43
2022-11-05T19:50:28.068Z,38.13
2022-11-05T19:52:56.451Z,33.85
2022-11-05T19:55:24.558Z,38.85
2022-11-05T19:57:53.111Z,39.03
2022-11-05T20:00:21.325Z,29.20
2022-11-05T20:02:49.571Z,32.22
2022-11-05T20:05:19.300Z,34.55
2022-11-05T20:07:52.487Z,33.70
2022-11-05T20:10:21.902Z,32.33
2022-11-05T20:12:50.039Z,28.90
2022-11-05T20:15:19.692Z,31.40
2022-11-05T20:17:52.372Z,28.53
2022-11-05T20:20:22.053Z,29.73
2022-11-05T20:22:52.881Z,32.15
2022-11-05T20:25:21.010Z,34.90
2022-11-05T20:27:49.087Z,31.60
2022-11-05T20:30:17.307Z,33.27
2022-11-05T20:32:45.424Z,33.53
2022-11-05T20:35:13.604Z,46.40
2022-11-05T20:37:43.091Z,37.03
2022-11-05T20:40:14.040Z,39.03
2022-11-05T20:42:42.905Z,31.40
2022-11-05T20:45:11.800Z,39.83
2022-11-05T20:47:39.875Z,34.03
2022-11-05T20:50:09.703Z,32.55
2022-11-05T20:52:37.836Z,36.15
2022-11-05T20:55:09.693Z,33.38
2022-11-05T20:57:38.481Z,33.28
2022-11-05T21:00:08.288Z,35.85
2022-11-05T21:02:36.880Z,31.55
2022-11-05T21:05:07.423Z,31.10
2022-11-05T21:07:35.971Z,35.83
2022-11-05T21:10:04.172Z,33.42
2022-11-05T21:12:33.802Z,28.02
2022-11-05T21:15:02.259Z,28.40
2022-11-05T21:17:30.366Z,35.67
2022-11-05T21:19:58.617Z,27.95
2022-11-05T21:22:26.711Z,30.73
2022-11-05T21:24:56.732Z,32.80
2022-11-05T21:27:25.450Z,33.92
2022-11-05T21:29:54.902Z,28.92
2022-11-05T21:32:23.039Z,30.25
2022-11-05T21:34:51.135Z,28.25
2022-11-05T21:37:19.278Z,29.35
2022-11-05T21:39:47.443Z,31.80
2022-11-05T21:42:15.567Z,30.92
2022-11-05T21:44:43.639Z,30.92
2022-11-05T21:47:13.130Z,29.50
2022-11-05T21:49:41.255Z,35.13
2022-11-05T21:52:29.485Z,31.98
2022-11-05T21:55:17.170Z,26.98
2022-11-05T21:58:02.911Z,30.08
2022-11-05T22:00:31.263Z,32.20
2022-11-05T22:03:00.984Z,33.58
2022-11-05T22:05:29.310Z,32.53
2022-11-05T22:07:57.455Z,33.22
2022-11-05T22:10:25.803Z,43.38
2022-11-05T22:12:53.929Z,42.13
2022-11-05T22:15:22.047Z,31.23
2022-11-05T22:17:51.751Z,36.45
2022-11-05T22:20:21.320Z,39.65
2022-11-05T22:22:49.746Z,32.88
2022-11-05T22:25:18.011Z,35.72
2022-11-05T22:27:46.128Z,39.67
2022-11-05T22:30:15.529Z,37.95
2022-11-05T22:32:43.603Z,34.78
2022-11-05T22:35:12.080Z,35.90
2022-11-05T22:37:41.618Z,34.25
2022-11-05T22:40:10.560Z,35.03
2022-11-05T22:42:38.742Z,27.67
2022-11-05T22:45:07.838Z,30.52
2022-11-05T22:47:35.959Z,30.98
2022-11-05T22:50:04.427Z,30.60
2022-11-05T22:52:32.783Z,31.10
2022-11-05T22:55:03.823Z,28.80
2022-11-05T22:57:31.915Z,35.08
2022-11-05T23:00:00.337Z,33.13
2022-11-05T23:02:28.648Z,30.60
2022-11-05T23:04:56.887Z,29.33
2022-11-05T23:07:42.454Z,27.80
2022-11-05T23:10:29.358Z,26.05
2022-11-05T23:12:57.615Z,29.38
2022-11-05T23:15:42.976Z,31.23
2022-11-05T23:18:28.807Z,34.90
2022-11-05T23:21:16.960Z,31.52
2022-11-05T23:24:05.540Z,30.08
2022-11-05T23:26:51.684Z,33.50
2022-11-05T23:29:21.773Z,34.28
2022-11-05T23:32:07.255Z,27.63
2022-11-05T23:34:35.553Z,28.80
2022-11-05T23:37:17.819Z,36.55
2022-11-05T23:39:46.062Z,28.90
2022-11-05T23:42:33.167Z,31.50
2022-11-05T23:45:18.531Z,31.88
2022-11-05T23:48:03.880Z,31.92
2022-11-05T23:50:37.066Z,40.38
2022-11-05T23:53:07.989Z,28.55
2022-11-05T23:55:36.679Z,27.02
2022-11-05T23:58:06.242Z,31.20
